Time,TemperatureF,DewpointF,PressureIn,WindDirection,WindDirectionDegrees,WindSpeedMPH,WindSpeedGustMPH,Humidity,HourlyPrecipIn,Conditions,Clouds,dailyrainin,SoftwareType,DateUTC
2013-02-26 00:00:00,46.2,43.2,30.21,SW,220,0.0,1.0,89,0.00,,,0.00,meteohub,2013-02-26 08:00:00,
2013-02-26 00:05:00,46.0,43.0,30.21,SW,220,0.0,0.0,89,0.00,,,0.00,meteohub,2013-02-26 08:05:00,
2013-02-26 00:10:00,46.0,43.3,30.21,SW,219,0.0,0.0,90,0.00,,,0.00,meteohub,2013-02-26 08:10:00,
2013-02-26 00:15:00,46.0,43.5,30.21,SW,220,0.0,1.0,91,0.00,,,0.00,meteohub,2013-02-26 08:15:00,
2013-02-26 00:20:00,46.6,44.1,30.21,SW,220,0.0,3.0,91,0.00,,,0.00,meteohub,2013-02-26 08:20:00,
2013-02-26 00:25:00,46.8,44.2,30.21,SW,222,0.0,5.0,91,0.00,,,0.00,meteohub,2013-02-26 08:25:00,
2013-02-26 00:30:00,46.8,44.2,30.21,SW,220,1.0,5.0,91,0.00,,,0.00,meteohub,2013-02-26 08:30:00,
2013-02-26 00:35:00,46.6,44.1,30.21,SW,220,0.0,4.0,91,0.00,,,0.00,meteohub,2013-02-26 08:35:00,
2013-02-26 00:40:00,46.6,44.1,30.21,SW,220,1.0,2.0,91,0.00,,,0.00,meteohub,2013-02-26 08:40:00,
2013-02-26 00:45:00,46.6,44.1,30.21,SW,220,0.0,2.0,91,0.00,,,0.00,meteohub,2013-02-26 08:45:00,
2013-02-26 00:50:00,46.2,43.5,30.20,SW,220,0.0,2.0,90,0.00,,,0.00,meteohub,2013-02-26 08:50:00,
2013-02-26 00:55:00,46.0,43.5,30.20,SW,220,0.0,1.0,91,0.00,,,0.00,meteohub,2013-02-26 08:55:00,
2013-02-26 01:00:00,46.0,43.5,30.20,SW,220,0.0,1.0,91,0.00,,,0.00,meteohub,2013-02-26 09:00:00,
2013-02-26 01:05:00,46.0,43.5,30.19,SW,220,0.0,2.0,91,0.00,,,0.00,meteohub,2013-02-26 09:05:00,
2013-02-26 01:10:00,45.9,43.3,30.19,SW,221,0.0,2.0,91,0.00,,,0.00,meteohub,2013-02-26 09:10:00,
2013-02-26 01:15:00,45.7,43.2,30.19,SW,218,0.0,2.0,91,0.00,,,0.00,meteohub,2013-02-26 09:15:00,
2013-02-26 01:20:00,45.3,42.8,30.19,SW,220,0.0,1.0,91,0.00,,,0.00,meteohub,2013-02-26 09:20:00,
2013-02-26 01:25:00,45.0,42.4,30.19,SW,220,0.0,0.0,91,0.00,,,0.00,meteohub,2013-02-26 09:25:00,
2013-02-26 01:30:00,45.0,42.4,30.19,SW,220,0.0,0.0,91,0.00,,,0.00,meteohub,2013-02-26 09:30:00,
2013-02-26 01:35:00,44.8,42.3,30.20,SW,220,0.0,0.0,91,0.00,,,0.00,meteohub,2013-02-26 09:35:00,
2013-02-26 01:40:00,44.6,42.4,30.20,SW,219,0.0,2.0,92,0.00,,,0.00,meteohub,2013-02-26 09:40:00,
2013-02-26 01:45:00,44.6,42.4,30.20,SW,220,0.0,2.0,92,0.00,,,0.00,meteohub,2013-02-26 09:45:00,
2013-02-26 01:50:00,44.4,42.3,30.19,SW,220,0.0,2.0,92,0.00,,,0.00,meteohub,2013-02-26 09:50:00,
2013-02-26 01:55:00,44.2,42.1,30.19,SW,220,0.0,2.0,92,0.00,,,0.00,meteohub,2013-02-26 09:55:00,
2013-02-26 02:00:00,44.2,42.1,30.19,SW,221,0.0,0.0,92,0.00,,,0.00,meteohub,2013-02-26 10:00:00,
2013-02-26 02:05:00,44.1,41.9,30.19,SW,220,0.0,0.0,92,0.00,,,0.00,meteohub,2013-02-26 10:05:00,
2013-02-26 02:10:00,43.9,41.7,30.19,SW,220,0.0,0.0,92,0.00,,,0.00,meteohub,2013-02-26 10:10:00,
2013-02-26 02:15:00,43.9,41.9,30.19,SW,219,0.0,0.0,93,0.00,,,0.00,meteohub,2013-02-26 10:15:00,
2013-02-26 02:20:00,43.9,41.9,30.19,SW,220,0.0,0.0,93,0.00,,,0.00,meteohub,2013-02-26 10:20:00,
2013-02-26 02:25:00,43.9,41.9,30.19,SW,220,0.0,0.0,93,0.00,,,0.00,meteohub,2013-02-26 10:25:00,
2013-02-26 02:31:00,43.9,41.9,30.19,SW,220,0.0,0.0,93,0.00,,,0.00,meteohub,2013-02-26 10:31:00,
2013-02-26 02:36:00,43.5,41.7,30.19,SW,220,0.0,0.0,93,0.00,,,0.00,meteohub,2013-02-26 10:36:00,
2013-02-26 02:41:00,43.3,41.5,30.19,SW,220,2.0,0.0,93,0.00,,,0.00,meteohub,2013-02-26 10:41:00,
2013-02-26 02:46:00,43.3,41.5,30.19,SW,222,3.0,4.0,93,0.00,,,0.00,meteohub,2013-02-26 10:46:00,
2013-02-26 02:51:00,43.3,41.7,30.18,East,95,3.0,5.0,94,0.00,,,0.00,meteohub,2013-02-26 10:51:00,
2013-02-26 02:56:00,43.7,42.1,30.18,East,96,2.0,5.0,94,0.00,,,0.00,meteohub,2013-02-26 10:56:00,
2013-02-26 03:01:00,44.1,42.4,30.18,SE,141,1.0,5.0,94,0.00,,,0.00,meteohub,2013-02-26 11:01:00,
2013-02-26 03:06:00,44.4,42.8,30.18,South,176,0.0,4.0,94,0.00,,,0.00,meteohub,2013-02-26 11:06:00,
2013-02-26 03:11:00,44.8,43.2,30.17,South,176,4.0,4.0,94,0.00,,,0.00,meteohub,2013-02-26 11:11:00,
2013-02-26 03:16:00,44.6,42.6,30.17,ESE,118,3.0,5.0,93,0.00,,,0.00,meteohub,2013-02-26 11:16:00,
2013-02-26 03:21:00,44.4,42.4,30.17,ESE,120,1.0,5.0,93,0.00,,,0.00,meteohub,2013-02-26 11:21:00,
2013-02-26 03:26:00,44.6,43.0,30.17,East,95,0.0,5.0,94,0.00,,,0.00,meteohub,2013-02-26 11:26:00,
2013-02-26 03:31:00,45.0,43.3,30.17,NNE,21,0.0,5.0,94,0.00,,,0.00,meteohub,2013-02-26 11:31:00,
2013-02-26 03:36:00,45.1,43.5,30.17,NE,52,0.0,5.0,94,0.00,,,0.00,meteohub,2013-02-26 11:36:00,
2013-02-26 03:41:00,45.1,43.2,30.17,NE,53,0.0,5.0,93,0.00,,,0.00,meteohub,2013-02-26 11:41:00,
2013-02-26 03:46:00,45.1,43.2,30.17,NE,55,0.0,5.0,93,0.00,,,0.00,meteohub,2013-02-26 11:46:00,
2013-02-26 03:51:00,45.0,43.0,30.17,NE,54,0.0,4.0,93,0.00,,,0.00,meteohub,2013-02-26 11:51:00,
2013-02-26 03:56:00,44.8,42.6,30.17,NE,48,0.0,3.0,92,0.00,,,0.00,meteohub,2013-02-26 11:56:00,
2013-02-26 04:01:00,45.0,42.4,30.17,ENE,57,6.0,10.0,91,0.00,,,0.00,meteohub,2013-02-26 12:01:00,
2013-02-26 04:06:00,45.7,42.1,30.17,NE,56,7.0,13.0,87,0.00,,,0.00,meteohub,2013-02-26 12:06:00,
2013-02-26 04:11:00,46.2,41.9,30.17,NE,48,4.0,13.0,85,0.00,,,0.00,meteohub,2013-02-26 12:11:00,
2013-02-26 04:16:00,46.6,42.1,30.17,ESE,102,2.0,13.0,84,0.00,,,0.00,meteohub,2013-02-26 12:16:00,
2013-02-26 04:21:00,46.8,42.3,30.18,NE,54,6.0,13.0,84,0.00,,,0.00,meteohub,2013-02-26 12:21:00,
2013-02-26 04:26:00,46.8,42.3,30.18,NE,52,7.0,11.0,84,0.00,,,0.00,meteohub,2013-02-26 12:26:00,
2013-02-26 04:31:00,46.8,41.9,30.18,ENE,63,5.0,12.0,83,0.00,,,0.00,meteohub,2013-02-26 12:31:00,
2013-02-26 04:36:00,46.8,41.9,30.18,NE,48,7.0,14.0,83,0.00,,,0.00,meteohub,2013-02-26 12:36:00,
2013-02-26 04:41:00,46.8,41.5,30.17,NE,56,4.0,14.0,82,0.00,,,0.00,meteohub,2013-02-26 12:41:00,
2013-02-26 04:46:00,46.8,41.2,30.17,NE,40,5.0,14.0,81,0.00,,,0.00,meteohub,2013-02-26 12:46:00,
2013-02-26 04:51:00,46.8,41.2,30.18,ENE,73,9.0,11.0,81,0.00,,,0.00,meteohub,2013-02-26 12:51:00,
2013-02-26 04:56:00,46.8,41.2,30.18,ENE,58,1.0,11.0,81,0.00,,,0.00,meteohub,2013-02-26 12:56:00,
2013-02-26 05:01:00,46.8,41.2,30.18,NE,50,8.0,14.0,81,0.00,,,0.00,meteohub,2013-02-26 13:01:00,
2013-02-26 05:06:00,46.6,41.0,30.18,NE,49,11.0,14.0,81,0.00,,,0.00,meteohub,2013-02-26 13:06:00,
2013-02-26 05:11:00,46.4,40.8,30.18,East,81,5.0,14.0,81,0.00,,,0.00,meteohub,2013-02-26 13:11:00,
2013-02-26 05:17:00,46.2,40.6,30.18,NE,42,6.0,11.0,81,0.00,,,0.00,meteohub,2013-02-26 13:17:00,
2013-02-26 05:22:00,46.2,40.6,30.18,East,83,3.0,11.0,81,0.00,,,0.00,meteohub,2013-02-26 13:22:00,
2013-02-26 05:27:00,46.2,40.6,30.18,East,80,3.0,11.0,81,0.00,,,0.00,meteohub,2013-02-26 13:27:00,
2013-02-26 05:32:00,46.2,40.5,30.18,East,81,8.0,11.0,80,0.00,,,0.00,meteohub,2013-02-26 13:32:00,
2013-02-26 05:37:00,46.2,40.6,30.19,NE,41,13.0,13.0,81,0.00,,,0.00,meteohub,2013-02-26 13:37:00,
2013-02-26 05:42:00,46.2,40.6,30.19,NNE,29,7.0,13.0,81,0.00,,,0.00,meteohub,2013-02-26 13:42:00,
2013-02-26 05:47:00,46.2,41.0,30.19,NE,54,7.0,13.0,82,0.00,,,0.00,meteohub,2013-02-26 13:47:00,
2013-02-26 05:52:00,46.0,40.5,30.19,NE,38,8.0,13.0,81,0.00,,,0.00,meteohub,2013-02-26 13:52:00,
2013-02-26 05:57:00,46.0,40.5,30.19,NE,50,4.0,11.0,81,0.00,,,0.00,meteohub,2013-02-26 13:57:00,
2013-02-26 06:02:00,46.0,40.3,30.20,ENE,64,5.0,11.0,80,0.00,,,0.00,meteohub,2013-02-26 14:02:00,
2013-02-26 06:07:00,46.0,40.5,30.20,ENE,75,3.0,10.0,81,0.00,,,0.00,meteohub,2013-02-26 14:07:00,
2013-02-26 06:12:00,46.0,40.5,30.20,NE,43,5.0,9.0,81,0.00,,,0.00,meteohub,2013-02-26 14:12:00,
2013-02-26 06:17:00,46.0,40.5,30.20,ENE,69,7.0,9.0,81,0.00,,,0.00,meteohub,2013-02-26 14:17:00,
2013-02-26 06:22:00,46.0,40.8,30.20,ENE,58,6.0,9.0,82,0.00,,,0.00,meteohub,2013-02-26 14:22:00,
2013-02-26 06:27:00,46.0,40.8,30.20,ENE,70,4.0,10.0,82,0.00,,,0.00,meteohub,2013-02-26 14:27:00,
2013-02-26 06:32:00,45.9,40.6,30.20,ENE,60,6.0,10.0,82,0.00,,,0.00,meteohub,2013-02-26 14:32:00,
2013-02-26 06:37:00,45.9,41.0,30.20,ENE,62,5.0,8.0,83,0.00,,,0.00,meteohub,2013-02-26 14:37:00,
2013-02-26 06:42:00,45.9,41.4,30.20,ENE,62,3.0,8.0,84,0.00,,,0.00,meteohub,2013-02-26 14:42:00,
2013-02-26 06:47:00,45.9,41.4,30.20,ENE,65,3.0,8.0,84,0.00,,,0.00,meteohub,2013-02-26 14:47:00,
2013-02-26 06:52:00,45.9,41.4,30.19,East,91,3.0,8.0,84,0.00,,,0.00,meteohub,2013-02-26 14:52:00,
2013-02-26 06:57:00,45.9,41.0,30.19,ENE,77,3.0,8.0,83,0.00,,,0.00,meteohub,2013-02-26 14:57:00,
2013-02-26 07:02:00,45.9,40.6,30.19,SSE,154,2.0,8.0,82,0.00,,,0.00,meteohub,2013-02-26 15:02:00,
2013-02-26 07:07:00,46.0,40.3,30.19,ENE,75,6.0,8.0,80,0.00,,,0.00,meteohub,2013-02-26 15:07:00,
2013-02-26 07:12:00,46.4,39.6,30.19,ENE,58,10.0,10.0,77,0.00,,,0.00,meteohub,2013-02-26 15:12:00,
2013-02-26 07:17:00,46.9,39.7,30.19,ENE,59,3.0,10.0,76,0.00,,,0.00,meteohub,2013-02-26 15:17:00,
2013-02-26 07:22:00,47.3,39.0,30.19,East,84,4.0,11.0,73,0.00,,,0.00,meteohub,2013-02-26 15:22:00,
2013-02-26 07:27:00,47.7,38.7,30.19,East,79,3.0,11.0,71,0.00,,,0.00,meteohub,2013-02-26 15:27:00,
2013-02-26 07:32:00,47.8,38.8,30.20,NNE,32,6.0,12.0,71,0.00,,,0.00,meteohub,2013-02-26 15:32:00,
2013-02-26 07:37:00,48.2,38.5,30.20,ENE,72,6.0,12.0,69,0.00,,,0.00,meteohub,2013-02-26 15:37:00,
2013-02-26 07:42:00,48.6,38.5,30.20,ENE,58,3.0,13.0,68,0.00,,,0.00,meteohub,2013-02-26 15:42:00,
2013-02-26 07:47:00,48.7,38.3,30.21,ENE,66,4.0,13.0,67,0.00,,,0.00,meteohub,2013-02-26 15:47:00,
2013-02-26 07:52:00,49.3,38.5,30.21,ESE,102,3.0,13.0,66,0.00,,,0.00,meteohub,2013-02-26 15:52:00,
2013-02-26 07:57:00,49.5,39.4,30.21,East,90,1.0,13.0,68,0.00,,,0.00,meteohub,2013-02-26 15:57:00,
2013-02-26 08:02:00,49.5,40.1,30.21,ENE,77,5.0,13.0,70,0.00,,,0.00,meteohub,2013-02-26 16:02:00,
2013-02-26 08:07:00,49.6,40.6,30.21,ENE,71,2.0,13.0,71,0.00,,,0.00,meteohub,2013-02-26 16:07:00,
2013-02-26 08:12:00,49.6,41.0,30.21,East,79,9.0,10.0,72,0.00,,,0.00,meteohub,2013-02-26 16:12:00,
2013-02-26 08:17:00,49.5,40.5,30.21,East,97,4.0,10.0,71,0.00,,,0.00,meteohub,2013-02-26 16:17:00,
2013-02-26 08:22:00,49.6,40.3,30.22,East,79,2.0,10.0,70,0.00,,,0.00,meteohub,2013-02-26 16:22:00,
2013-02-26 08:27:00,49.6,39.9,30.21,NE,53,1.0,10.0,69,0.00,,,0.00,meteohub,2013-02-26 16:27:00,
2013-02-26 08:32:00,50.0,39.9,30.21,ENE,61,4.0,10.0,68,0.00,,,0.00,meteohub,2013-02-26 16:32:00,
2013-02-26 08:37:00,50.4,39.7,30.21,ENE,75,0.0,10.0,67,0.00,,,0.00,meteohub,2013-02-26 16:37:00,
2013-02-26 08:42:00,50.5,39.9,30.22,ESE,106,2.0,10.0,67,0.00,,,0.00,meteohub,2013-02-26 16:42:00,
2013-02-26 08:47:00,50.7,39.7,30.22,SSE,156,2.0,13.0,66,0.00,,,0.00,meteohub,2013-02-26 16:47:00,
2013-02-26 08:52:00,50.9,39.6,30.22,NE,52,7.0,13.0,65,0.00,,,0.00,meteohub,2013-02-26 16:52:00,
2013-02-26 08:58:00,51.3,39.9,30.22,NE,52,0.0,13.0,65,0.00,,,0.00,meteohub,2013-02-26 16:58:00,
2013-02-26 09:03:00,51.6,37.8,30.22,ENE,73,2.0,11.0,59,0.00,,,0.00,meteohub,2013-02-26 17:03:00,
2013-02-26 09:08:00,52.0,36.3,30.22,NE,49,7.0,10.0,55,0.00,,,0.00,meteohub,2013-02-26 17:08:00,
2013-02-26 09:13:00,52.3,37.0,30.22,East,79,6.0,10.0,56,0.00,,,0.00,meteohub,2013-02-26 17:13:00,
2013-02-26 09:18:00,52.7,37.4,30.22,NE,45,6.0,10.0,56,0.00,,,0.00,meteohub,2013-02-26 17:18:00,
2013-02-26 09:23:00,53.1,36.9,30.22,NE,50,5.0,10.0,54,0.00,,,0.00,meteohub,2013-02-26 17:23:00,
2013-02-26 09:28:00,53.1,36.9,30.22,NE,56,2.0,11.0,54,0.00,,,0.00,meteohub,2013-02-26 17:28:00,
2013-02-26 09:33:00,53.2,36.5,30.21,ENE,68,7.0,13.0,53,0.00,,,0.00,meteohub,2013-02-26 17:33:00,
2013-02-26 09:38:00,53.4,37.2,30.21,NNE,27,9.0,14.0,54,0.00,,,0.00,meteohub,2013-02-26 17:38:00,
2013-02-26 09:43:00,53.4,34.7,30.21,NNE,12,11.0,14.0,49,0.00,,,0.00,meteohub,2013-02-26 17:43:00,
2013-02-26 09:48:00,53.4,34.2,30.21,ENE,57,12.0,14.0,48,0.00,,,0.00,meteohub,2013-02-26 17:48:00,
2013-02-26 09:53:00,53.6,34.3,30.21,NNW,341,11.0,17.0,48,0.00,,,0.00,meteohub,2013-02-26 17:53:00,
2013-02-26 09:58:00,53.8,34.5,30.21,NE,54,7.0,17.0,48,0.00,,,0.00,meteohub,2013-02-26 17:58:00,
2013-02-26 10:03:00,54.0,33.6,30.21,NE,53,7.0,15.0,46,0.00,,,0.00,meteohub,2013-02-26 18:03:00,
2013-02-26 10:08:00,54.1,34.3,30.21,NE,35,4.0,16.0,47,0.00,,,0.00,meteohub,2013-02-26 18:08:00,
2013-02-26 10:13:00,54.7,33.8,30.21,NNE,23,5.0,16.0,45,0.00,,,0.00,meteohub,2013-02-26 18:13:00,
2013-02-26 10:18:00,55.0,33.4,30.21,NE,56,4.0,16.0,44,0.00,,,0.00,meteohub,2013-02-26 18:18:00,
2013-02-26 10:23:00,55.4,33.8,30.21,East,90,2.0,14.0,44,0.00,,,0.00,meteohub,2013-02-26 18:23:00,
2013-02-26 10:28:00,55.8,30.6,30.21,NE,52,8.0,14.0,38,0.00,,,0.00,meteohub,2013-02-26 18:28:00,
2013-02-26 10:34:00,56.1,30.9,30.20,NE,41,12.0,14.0,38,0.00,,,0.00,meteohub,2013-02-26 18:34:00,
2013-02-26 10:39:00,56.1,29.5,30.20,NE,50,7.0,13.0,36,0.00,,,0.00,meteohub,2013-02-26 18:39:00,
2013-02-26 10:44:00,56.3,27.5,30.20,NE,48,11.0,13.0,33,0.00,,,0.00,meteohub,2013-02-26 18:44:00,
2013-02-26 10:49:00,56.5,29.8,30.20,NNE,13,7.0,14.0,36,0.00,,,0.00,meteohub,2013-02-26 18:49:00,
2013-02-26 10:54:00,56.7,30.0,30.20,ENE,75,8.0,14.0,36,0.00,,,0.00,meteohub,2013-02-26 18:54:00,
2013-02-26 10:59:00,57.6,30.0,30.20,ESE,103,3.0,13.0,35,0.00,,,0.00,meteohub,2013-02-26 18:59:00,
2013-02-26 11:04:00,57.6,30.0,30.20,NE,41,9.0,13.0,35,0.00,,,0.00,meteohub,2013-02-26 19:04:00,
2013-02-26 11:09:00,57.6,32.2,30.20,NE,41,5.0,14.0,38,0.00,,,0.00,meteohub,2013-02-26 19:09:00,
2013-02-26 11:14:00,57.7,30.9,30.20,North,351,3.0,14.0,36,0.00,,,0.00,meteohub,2013-02-26 19:14:00,
2013-02-26 11:19:00,57.7,29.5,30.20,NNE,12,3.0,14.0,34,0.00,,,0.00,meteohub,2013-02-26 19:19:00,
2013-02-26 11:24:00,57.9,28.9,30.20,North,7,6.0,10.0,33,0.00,,,0.00,meteohub,2013-02-26 19:24:00,
2013-02-26 11:29:00,58.1,27.7,30.20,NNE,21,7.0,9.0,31,0.00,,,0.00,meteohub,2013-02-26 19:29:00,
2013-02-26 11:34:00,58.5,27.9,30.21,North,358,9.0,11.0,31,0.00,,,0.00,meteohub,2013-02-26 19:34:00,
2013-02-26 11:39:00,58.8,28.9,30.21,NE,49,4.0,11.0,32,0.00,,,0.00,meteohub,2013-02-26 19:39:00,
2013-02-26 11:44:00,59.5,28.0,30.20,NNW,333,6.0,12.0,30,0.00,,,0.00,meteohub,2013-02-26 19:44:00,
2013-02-26 11:49:00,59.7,28.2,30.20,NNE,23,7.0,12.0,30,0.00,,,0.00,meteohub,2013-02-26 19:49:00,
2013-02-26 11:54:00,59.5,38.7,30.20,WNW,293,4.0,12.0,46,0.00,,,0.00,meteohub,2013-02-26 19:54:00,
2013-02-26 11:59:00,58.8,39.2,30.20,WNW,292,2.0,12.0,48,0.00,,,0.00,meteohub,2013-02-26 19:59:00,
2013-02-26 12:04:00,57.9,40.5,30.20,NNW,328,5.0,12.0,52,0.00,,,0.00,meteohub,2013-02-26 20:04:00,
2013-02-26 12:09:00,57.4,40.8,30.20,WNW,287,5.0,8.0,54,0.00,,,0.00,meteohub,2013-02-26 20:09:00,
2013-02-26 12:15:00,56.8,41.4,30.19,WNW,297,0.0,8.0,56,0.00,,,0.00,meteohub,2013-02-26 20:15:00,
2013-02-26 12:20:00,56.7,41.5,30.19,NW,314,3.0,8.0,57,0.00,,,0.00,meteohub,2013-02-26 20:20:00,
2013-02-26 12:25:00,56.8,41.7,30.19,NW,314,3.0,7.0,57,0.00,,,0.00,meteohub,2013-02-26 20:25:00,
2013-02-26 12:30:00,57.4,42.3,30.19,NW,315,1.0,7.0,57,0.00,,,0.00,meteohub,2013-02-26 20:30:00,
2013-02-26 12:35:00,57.4,41.4,30.19,NW,313,5.0,5.0,55,0.00,,,0.00,meteohub,2013-02-26 20:35:00,
2013-02-26 12:40:00,57.0,41.9,30.19,North,351,2.0,7.0,57,0.00,,,0.00,meteohub,2013-02-26 20:40:00,
2013-02-26 12:45:00,56.8,41.7,30.18,WNW,283,7.0,7.0,57,0.00,,,0.00,meteohub,2013-02-26 20:45:00,
2013-02-26 12:50:00,56.8,41.4,30.18,WNW,286,2.0,9.0,56,0.00,,,0.00,meteohub,2013-02-26 20:50:00,
2013-02-26 12:55:00,57.0,42.8,30.18,NW,317,4.0,9.0,59,0.00,,,0.00,meteohub,2013-02-26 20:55:00,
2013-02-26 13:00:00,56.8,41.7,30.18,WNW,302,0.0,8.0,57,0.00,,,0.00,meteohub,2013-02-26 21:00:00,
2013-02-26 13:05:00,57.2,38.7,30.18,WNW,291,2.0,8.0,50,0.00,,,0.00,meteohub,2013-02-26 21:05:00,
2013-02-26 13:11:00,57.0,37.0,30.17,NW,307,3.0,8.0,47,0.00,,,0.00,meteohub,2013-02-26 21:11:00,
2013-02-26 13:16:00,56.8,36.3,30.17,NNW,333,2.0,8.0,46,0.00,,,0.00,meteohub,2013-02-26 21:16:00,
2013-02-26 13:21:00,57.4,37.4,30.17,WNW,287,1.0,8.0,47,0.00,,,0.00,meteohub,2013-02-26 21:21:00,
2013-02-26 13:26:00,57.9,36.1,30.17,North,8,0.0,8.0,44,0.00,,,0.00,meteohub,2013-02-26 21:26:00,
2013-02-26 13:31:00,58.5,37.2,30.17,NW,310,0.0,8.0,45,0.00,,,0.00,meteohub,2013-02-26 21:31:00,
2013-02-26 13:36:00,58.6,38.5,30.17,West,274,3.0,8.0,47,0.00,,,0.00,meteohub,2013-02-26 21:36:00,
2013-02-26 13:41:00,58.5,38.8,30.17,WNW,299,5.0,7.0,48,0.00,,,0.00,meteohub,2013-02-26 21:41:00,
2013-02-26 13:46:00,57.7,38.7,30.17,WNW,298,5.0,8.0,49,0.00,,,0.00,meteohub,2013-02-26 21:46:00,
2013-02-26 13:51:00,57.6,39.0,30.17,NW,305,2.0,9.0,50,0.00,,,0.00,meteohub,2013-02-26 21:51:00,
2013-02-26 13:56:00,57.7,37.6,30.16,WNW,285,4.0,9.0,47,0.00,,,0.00,meteohub,2013-02-26 21:56:00,
2013-02-26 14:01:00,57.9,40.5,30.16,WNW,287,3.0,9.0,52,0.00,,,0.00,meteohub,2013-02-26 22:01:00,
2013-02-26 14:06:00,58.5,37.2,30.16,NNW,337,6.0,8.0,45,0.00,,,0.00,meteohub,2013-02-26 22:06:00,
2013-02-26 14:11:00,58.5,37.2,30.16,West,281,4.0,8.0,45,0.00,,,0.00,meteohub,2013-02-26 22:11:00,
2013-02-26 14:16:00,58.3,37.6,30.16,NW,315,4.0,9.0,46,0.00,,,0.00,meteohub,2013-02-26 22:16:00,
2013-02-26 14:21:00,58.3,40.3,30.16,West,275,3.0,9.0,51,0.00,,,0.00,meteohub,2013-02-26 22:21:00,
2013-02-26 14:26:00,58.1,40.6,30.16,WNW,290,7.0,9.0,52,0.00,,,0.00,meteohub,2013-02-26 22:26:00,
2013-02-26 14:31:00,57.7,40.6,30.16,NNW,329,2.0,8.0,53,0.00,,,0.00,meteohub,2013-02-26 22:31:00,
2013-02-26 14:36:00,58.6,40.6,30.16,NW,305,2.0,8.0,51,0.00,,,0.00,meteohub,2013-02-26 22:36:00,
2013-02-26 14:41:00,58.5,39.9,30.16,WNW,302,3.0,8.0,50,0.00,,,0.00,meteohub,2013-02-26 22:41:00,
2013-02-26 14:46:00,58.3,39.2,30.16,SW,235,7.0,8.0,49,0.00,,,0.00,meteohub,2013-02-26 22:46:00,
2013-02-26 14:51:00,58.5,40.5,30.16,West,277,2.0,10.0,51,0.00,,,0.00,meteohub,2013-02-26 22:51:00,
2013-02-26 14:56:00,58.3,41.2,30.16,WSW,256,9.0,13.0,53,0.00,,,0.00,meteohub,2013-02-26 22:56:00,
2013-02-26 15:01:00,57.6,40.6,30.16,NW,308,2.0,13.0,53,0.00,,,0.00,meteohub,2013-02-26 23:01:00,
2013-02-26 15:06:00,57.7,41.2,30.16,WNW,292,1.0,13.0,54,0.00,,,0.00,meteohub,2013-02-26 23:06:00,
2013-02-26 15:11:00,57.6,41.9,30.16,West,264,11.0,11.0,56,0.00,,,0.00,meteohub,2013-02-26 23:11:00,
2013-02-26 15:16:00,56.8,41.7,30.16,WSW,237,0.0,11.0,57,0.00,,,0.00,meteohub,2013-02-26 23:16:00,
2013-02-26 15:21:00,56.7,41.5,30.16,West,264,11.0,11.0,57,0.00,,,0.00,meteohub,2013-02-26 23:21:00,
2013-02-26 15:26:00,56.1,40.1,30.16,WSW,245,7.0,15.0,55,0.00,,,0.00,meteohub,2013-02-26 23:26:00,
2013-02-26 15:32:00,56.1,40.6,30.16,West,268,8.0,15.0,56,0.00,,,0.00,meteohub,2013-02-26 23:32:00,
2013-02-26 15:37:00,56.3,42.1,30.16,West,264,3.0,15.0,59,0.00,,,0.00,meteohub,2013-02-26 23:37:00,
2013-02-26 15:42:00,56.5,41.9,30.16,West,261,6.0,13.0,58,0.00,,,0.00,meteohub,2013-02-26 23:42:00,
2013-02-26 15:47:00,55.8,41.7,30.16,SW,235,10.0,13.0,59,0.00,,,0.00,meteohub,2013-02-26 23:47:00,
2013-02-26 15:52:00,55.8,41.7,30.16,WSW,258,8.0,13.0,59,0.00,,,0.00,meteohub,2013-02-26 23:52:00,
2013-02-26 15:57:00,55.6,42.3,30.16,West,263,10.0,13.0,61,0.00,,,0.00,meteohub,2013-02-26 23:57:00,
2013-02-26 16:02:00,55.4,43.3,30.16,WSW,256,6.0,13.0,64,0.00,,,0.00,meteohub,2013-02-27 00:02:00,
2013-02-26 16:07:00,55.4,43.9,30.15,West,262,3.0,11.0,65,0.00,,,0.00,meteohub,2013-02-27 00:07:00,
2013-02-26 16:12:00,55.4,44.2,30.15,WSW,247,5.0,12.0,66,0.00,,,0.00,meteohub,2013-02-27 00:12:00,
2013-02-26 16:17:00,54.9,43.0,30.15,West,268,1.0,12.0,64,0.00,,,0.00,meteohub,2013-02-27 00:17:00,
2013-02-26 16:22:00,54.9,43.7,30.15,WSW,252,2.0,13.0,66,0.00,,,0.00,meteohub,2013-02-27 00:22:00,
2013-02-26 16:27:00,55.0,43.9,30.15,WSW,244,4.0,13.0,66,0.00,,,0.00,meteohub,2013-02-27 00:27:00,
2013-02-26 16:32:00,54.9,43.7,30.15,WSW,252,8.0,12.0,66,0.00,,,0.00,meteohub,2013-02-27 00:32:00,
2013-02-26 16:37:00,54.3,44.1,30.15,West,275,8.0,12.0,68,0.00,,,0.00,meteohub,2013-02-27 00:37:00,
2013-02-26 16:42:00,54.3,44.4,30.15,West,268,6.0,12.0,69,0.00,,,0.00,meteohub,2013-02-27 00:42:00,
2013-02-26 16:47:00,54.1,44.6,30.15,WSW,254,1.0,12.0,70,0.00,,,0.00,meteohub,2013-02-27 00:47:00,
2013-02-26 16:52:00,54.3,44.4,30.15,SW,230,3.0,11.0,69,0.00,,,0.00,meteohub,2013-02-27 00:52:00,
2013-02-26 16:57:00,54.5,44.6,30.15,SW,227,3.0,11.0,69,0.00,,,0.00,meteohub,2013-02-27 00:57:00,
2013-02-26 17:02:00,54.3,44.8,30.15,WSW,257,6.0,10.0,70,0.00,,,0.00,meteohub,2013-02-27 01:02:00,
2013-02-26 17:07:00,54.3,45.1,30.15,West,265,3.0,12.0,71,0.00,,,0.00,meteohub,2013-02-27 01:07:00,
2013-02-26 17:12:00,54.1,45.3,30.15,West,264,2.0,12.0,72,0.00,,,0.00,meteohub,2013-02-27 01:12:00,
2013-02-26 17:17:00,53.8,45.3,30.15,SW,235,3.0,12.0,73,0.00,,,0.00,meteohub,2013-02-27 01:17:00,
2013-02-26 17:22:00,54.0,45.5,30.15,WSW,250,3.0,11.0,73,0.00,,,0.00,meteohub,2013-02-27 01:22:00,
2013-02-26 17:27:00,53.8,45.3,30.16,WSW,250,3.0,11.0,73,0.00,,,0.00,meteohub,2013-02-27 01:27:00,
2013-02-26 17:32:00,53.4,45.3,30.16,WSW,237,7.0,9.0,74,0.00,,,0.00,meteohub,2013-02-27 01:32:00,
2013-02-26 17:37:00,53.1,45.0,30.16,WSW,256,5.0,15.0,74,0.00,,,0.00,meteohub,2013-02-27 01:37:00,
2013-02-26 17:43:00,52.9,45.1,30.16,WSW,258,6.0,15.0,75,0.00,,,0.00,meteohub,2013-02-27 01:43:00,
2013-02-26 17:48:00,52.7,45.3,30.16,SW,231,7.0,15.0,76,0.00,,,0.00,meteohub,2013-02-27 01:48:00,
2013-02-26 17:53:00,52.3,45.3,30.16,WSW,252,3.0,10.0,77,0.00,,,0.00,meteohub,2013-02-27 01:53:00,
2013-02-26 17:58:00,52.2,45.1,30.16,West,273,1.0,9.0,77,0.00,,,0.00,meteohub,2013-02-27 01:58:00,
2013-02-26 18:03:00,52.0,45.3,30.16,West,259,3.0,9.0,78,0.00,,,0.00,meteohub,2013-02-27 02:03:00,
2013-02-26 18:08:00,51.6,45.3,30.16,West,270,2.0,8.0,79,0.00,,,0.00,meteohub,2013-02-27 02:08:00,
2013-02-26 18:13:00,51.6,45.3,30.16,WSW,253,3.0,8.0,79,0.00,,,0.00,meteohub,2013-02-27 02:13:00,
2013-02-26 18:18:00,51.6,45.3,30.16,SW,234,0.0,8.0,79,0.00,,,0.00,meteohub,2013-02-27 02:18:00,
2013-02-26 18:23:00,51.4,45.5,30.16,SW,225,1.0,7.0,80,0.00,,,0.00,meteohub,2013-02-27 02:23:00,
2013-02-26 18:28:00,51.3,45.3,30.16,SW,224,1.0,7.0,80,0.00,,,0.00,meteohub,2013-02-27 02:28:00,
2013-02-26 18:33:00,50.7,45.1,30.16,WSW,241,3.0,6.0,81,0.00,,,0.00,meteohub,2013-02-27 02:33:00,
2013-02-26 18:39:00,50.5,45.3,30.16,South,176,3.0,8.0,82,0.00,,,0.00,meteohub,2013-02-27 02:39:00,
2013-02-26 18:44:00,50.5,45.5,30.16,WSW,237,2.0,8.0,83,0.00,,,0.00,meteohub,2013-02-27 02:44:00,
2013-02-26 18:49:00,50.4,45.3,30.16,South,187,0.0,5.0,83,0.00,,,0.00,meteohub,2013-02-27 02:49:00,
2013-02-26 18:54:00,50.4,45.3,30.16,SE,135,2.0,5.0,83,0.00,,,0.00,meteohub,2013-02-27 02:54:00,
2013-02-26 18:59:00,50.2,45.5,30.16,SW,233,0.0,5.0,84,0.00,,,0.00,meteohub,2013-02-27 02:59:00,
2013-02-26 19:04:00,50.0,45.7,30.16,SW,231,1.0,6.0,85,0.00,,,0.00,meteohub,2013-02-27 03:04:00,
2013-02-26 19:09:00,50.0,45.7,30.16,SW,231,0.0,6.0,85,0.00,,,0.00,meteohub,2013-02-27 03:09:00,
2013-02-26 19:15:00,49.8,45.5,30.17,SW,231,5.0,5.0,85,0.00,,,0.00,meteohub,2013-02-27 03:15:00,
2013-02-26 19:20:00,49.8,45.5,30.17,SSW,208,1.0,5.0,85,0.00,,,0.00,meteohub,2013-02-27 03:20:00,
2013-02-26 19:25:00,49.8,45.5,30.17,South,176,2.0,5.0,85,0.00,,,0.00,meteohub,2013-02-27 03:25:00,
2013-02-26 19:30:00,49.8,45.5,30.17,South,181,0.0,5.0,85,0.00,,,0.00,meteohub,2013-02-27 03:30:00,
2013-02-26 19:36:00,49.8,45.5,30.17,South,181,0.0,5.0,85,0.00,,,0.00,meteohub,2013-02-27 03:36:00,
2013-02-26 19:41:00,49.8,45.5,30.17,WSW,242,1.0,5.0,85,0.00,,,0.00,meteohub,2013-02-27 03:41:00,
2013-02-26 19:46:00,49.8,45.5,30.17,SSW,202,1.0,8.0,85,0.00,,,0.00,meteohub,2013-02-27 03:46:00,
2013-02-26 19:51:00,49.6,45.7,30.17,SSW,192,1.0,8.0,86,0.00,,,0.00,meteohub,2013-02-27 03:51:00,
2013-02-26 19:56:00,49.6,45.7,30.17,SSW,194,0.0,8.0,86,0.00,,,0.00,meteohub,2013-02-27 03:56:00,
2013-02-26 20:02:00,49.6,45.7,30.17,South,185,0.0,6.0,86,0.00,,,0.00,meteohub,2013-02-27 04:02:00,
2013-02-26 20:07:00,49.6,45.7,30.17,South,185,1.0,6.0,86,0.00,,,0.00,meteohub,2013-02-27 04:07:00,
2013-02-26 20:12:00,49.5,45.5,30.17,South,185,0.0,6.0,86,0.00,,,0.00,meteohub,2013-02-27 04:12:00,
2013-02-26 20:17:00,49.5,45.1,30.18,South,181,0.0,5.0,85,0.00,,,0.00,meteohub,2013-02-27 04:17:00,
2013-02-26 20:22:00,49.5,45.1,30.18,SW,215,4.0,6.0,85,0.00,,,0.00,meteohub,2013-02-27 04:22:00,
2013-02-26 20:28:00,49.5,45.5,30.18,SSW,208,1.0,6.0,86,0.00,,,0.00,meteohub,2013-02-27 04:28:00,
2013-02-26 20:33:00,49.5,45.5,30.18,SSE,156,1.0,7.0,86,0.00,,,0.00,meteohub,2013-02-27 04:33:00,
2013-02-26 20:38:00,49.3,45.3,30.18,SSE,162,0.0,7.0,86,0.00,,,0.00,meteohub,2013-02-27 04:38:00,
2013-02-26 20:43:00,49.3,45.3,30.18,SW,218,1.0,7.0,86,0.00,,,0.00,meteohub,2013-02-27 04:43:00,
2013-02-26 20:49:00,49.3,45.3,30.18,SW,218,0.0,5.0,86,0.00,,,0.00,meteohub,2013-02-27 04:49:00,
2013-02-26 20:54:00,48.9,45.0,30.18,South,181,0.0,5.0,86,0.00,,,0.00,meteohub,2013-02-27 04:54:00,
2013-02-26 20:59:00,48.9,45.0,30.18,South,176,0.0,5.0,86,0.00,,,0.00,meteohub,2013-02-27 04:59:00,
2013-02-26 21:00:00,48.9,45.0,30.19,South,176,0.0,5.0,86,0.00,,,0.00,meteohub,2013-02-27 05:00:00,
2013-02-26 21:01:00,48.7,44.8,30.19,South,176,0.0,5.0,86,0.00,,,0.00,meteohub,2013-02-27 05:01:00,
2013-02-26 21:02:00,48.7,44.8,30.19,South,176,0.0,5.0,86,0.00,,,0.00,meteohub,2013-02-27 05:02:00,
2013-02-26 21:07:00,48.7,45.0,30.19,South,176,0.0,4.0,87,0.00,,,0.00,meteohub,2013-02-27 05:07:00,
2013-02-26 21:13:00,48.6,44.6,30.19,South,176,0.0,3.0,86,0.00,,,0.00,meteohub,2013-02-27 05:13:00,
2013-02-26 21:18:00,48.6,44.6,30.19,South,176,0.0,2.0,86,0.00,,,0.00,meteohub,2013-02-27 05:18:00,
2013-02-26 21:23:00,48.6,44.6,30.19,South,176,0.0,2.0,86,0.00,,,0.00,meteohub,2013-02-27 05:23:00,
2013-02-26 21:28:00,48.6,44.6,30.19,South,176,0.0,1.0,86,0.00,,,0.00,meteohub,2013-02-27 05:28:00,
2013-02-26 21:33:00,48.6,44.2,30.19,South,176,0.0,0.0,85,0.00,,,0.00,meteohub,2013-02-27 05:33:00,
2013-02-26 21:39:00,48.4,44.4,30.19,South,176,0.0,0.0,86,0.00,,,0.00,meteohub,2013-02-27 05:39:00,
2013-02-26 21:44:00,48.4,44.4,30.19,South,176,0.0,0.0,86,0.00,,,0.00,meteohub,2013-02-27 05:44:00,
2013-02-26 21:49:00,48.0,44.1,30.19,South,176,0.0,0.0,86,0.00,,,0.00,meteohub,2013-02-27 05:49:00,
2013-02-26 21:54:00,47.8,43.9,30.19,South,176,0.0,0.0,86,0.00,,,0.00,meteohub,2013-02-27 05:54:00,
2013-02-26 21:59:00,47.7,44.1,30.19,South,176,0.0,1.0,87,0.00,,,0.00,meteohub,2013-02-27 05:59:00,
2013-02-26 22:04:00,47.3,43.7,30.19,South,176,0.0,1.0,87,0.00,,,0.00,meteohub,2013-02-27 06:04:00,
2013-02-26 22:10:00,47.1,43.7,30.19,South,176,0.0,1.0,88,0.00,,,0.00,meteohub,2013-02-27 06:10:00,
2013-02-26 22:15:00,46.9,43.5,30.19,South,176,0.0,0.0,88,0.00,,,0.00,meteohub,2013-02-27 06:15:00,
2013-02-26 22:20:00,46.9,43.5,30.19,South,176,0.0,0.0,88,0.00,,,0.00,meteohub,2013-02-27 06:20:00,
2013-02-26 22:25:00,46.8,43.3,30.20,South,176,0.0,0.0,88,0.00,,,0.00,meteohub,2013-02-27 06:25:00,
2013-02-26 22:30:00,46.8,43.7,30.21,South,176,0.0,0.0,89,0.00,,,0.00,meteohub,2013-02-27 06:30:00,
2013-02-26 22:36:00,46.9,43.9,30.20,South,176,0.0,1.0,89,0.00,,,0.00,meteohub,2013-02-27 06:36:00,
2013-02-26 22:41:00,46.8,43.7,30.20,South,176,0.0,1.0,89,0.00,,,0.00,meteohub,2013-02-27 06:41:00,
2013-02-26 22:46:00,46.6,43.5,30.20,South,171,0.0,1.0,89,0.00,,,0.00,meteohub,2013-02-27 06:46:00,
2013-02-26 22:51:00,46.2,43.2,30.19,South,171,0.0,1.0,89,0.00,,,0.00,meteohub,2013-02-27 06:51:00,
2013-02-26 22:56:00,46.2,43.2,30.20,South,171,0.0,2.0,89,0.00,,,0.00,meteohub,2013-02-27 06:56:00,
2013-02-26 23:02:00,46.2,43.5,30.20,South,176,0.0,2.0,90,0.00,,,0.00,meteohub,2013-02-27 07:02:00,
2013-02-26 23:07:00,46.2,43.5,30.20,South,176,0.0,2.0,90,0.00,,,0.00,meteohub,2013-02-27 07:07:00,
2013-02-26 23:12:00,46.2,43.2,30.20,South,176,0.0,1.0,89,0.00,,,0.00,meteohub,2013-02-27 07:12:00,
2013-02-26 23:17:00,46.0,43.3,30.21,South,176,0.0,0.0,90,0.00,,,0.00,meteohub,2013-02-27 07:17:00,
2013-02-26 23:22:00,46.0,43.3,30.21,South,176,0.0,0.0,90,0.00,,,0.00,meteohub,2013-02-27 07:22:00,
2013-02-26 23:28:00,46.0,43.3,30.21,South,176,0.0,0.0,90,0.00,,,0.00,meteohub,2013-02-27 07:28:00,
2013-02-26 23:33:00,45.9,42.8,30.22,South,176,0.0,0.0,89,0.00,,,0.00,meteohub,2013-02-27 07:33:00,
2013-02-26 23:38:00,46.0,43.5,30.22,South,181,0.0,1.0,91,0.00,,,0.00,meteohub,2013-02-27 07:38:00,
2013-02-26 23:43:00,46.2,43.7,30.21,South,181,0.0,2.0,91,0.00,,,0.00,meteohub,2013-02-27 07:43:00,
2013-02-26 23:48:00,46.6,44.1,30.21,West,269,0.0,2.0,91,0.00,,,0.00,meteohub,2013-02-27 07:48:00,
2013-02-26 23:53:00,46.9,44.2,30.21,West,270,0.0,2.0,90,0.00,,,0.00,meteohub,2013-02-27 07:53:00,
2013-02-26 23:59:00,47.1,44.4,30.21,West,266,0.0,3.0,90,0.00,,,0.00,meteohub,2013-02-27 07:59:00,